Time;durP1;ratioP1;P1;durP2;ratioP2;P2;SDS_P1;SDS_P2;PMS_P1;PMS_P2;Temp;Humidity;BMP_temperature;BMP_pressure;BME280_temperature;BME280_humidity;BME280_pressure;Samples;Min_cycle;Max_cycle;Signal;HPM_P1;HPM_P2
2022/12/25 00:02:13;;;;;;;15.23;7.83;;;9.10;99.90;;;9.63;100.00;98219.03;5085799;28;20447;-77
2022/12/25 00:04:43;;;;;;;22.23;7.70;;;9.00;99.90;;;9.64;100.00;98223.25;5087296;28;20478;-77
2022/12/25 00:07:13;;;;;;;20.80;6.67;;;9.00;99.90;;;9.66;100.00;98219.47;5087797;28;20562;-78
2022/12/25 00:09:44;;;;;;;15.63;7.53;;;9.10;99.90;;;9.67;100.00;98223.72;5090932;28;21256;-78
2022/12/25 00:12:14;;;;;;;19.57;6.87;;;9.10;99.90;;;9.68;100.00;98220.13;5089907;28;20463;-77
2022/12/25 00:14:43;;;;;;;20.60;7.67;;;9.10;99.90;;;9.69;100.00;98220.91;5091581;28;20965;-77
2022/12/25 00:17:14;;;;;;;21.43;6.80;;;9.10;99.90;;;9.71;100.00;98221.56;5092146;28;20466;-77
2022/12/25 00:19:44;;;;;;;16.03;7.23;;;9.10;99.90;;;9.73;100.00;98216.97;5094339;28;20524;-77
2022/12/25 00:22:13;;;;;;;19.63;6.63;;;9.20;99.90;;;9.73;100.00;98209.13;5095740;28;20538;-78
2022/12/25 00:24:42;;;;;;;27.00;8.10;;;9.30;99.90;;;9.73;100.00;98204.72;5094770;28;21038;-78
2022/12/25 00:27:12;;;;;;;25.20;8.10;;;9.30;99.90;;;9.71;100.00;98200.69;5094140;28;20458;-77
2022/12/25 00:29:41;;;;;;;17.53;7.00;;;9.30;99.90;;;9.73;100.00;98199.50;5095155;28;20459;-77
2022/12/25 00:32:11;;;;;;;12.50;6.20;;;9.20;99.90;;;9.71;100.00;98196.28;5095693;28;20458;-77
2022/12/25 00:34:41;;;;;;;20.13;7.70;;;9.20;99.90;;;9.74;100.00;98200.31;5093122;28;20500;-78
2022/12/25 00:37:11;;;;;;;12.37;6.50;;;9.20;99.90;;;9.74;100.00;98216.81;5094434;28;21032;-77
2022/12/25 00:39:40;;;;;;;14.37;7.60;;;9.20;99.90;;;9.74;100.00;98221.22;5096060;28;20512;-77
2022/12/25 00:42:19;;;;;;;23.67;7.30;;;9.10;99.90;;;9.73;100.00;98230.84;5095213;28;20502;-77
2022/12/25 00:44:49;;;;;;;12.33;5.93;;;9.10;99.90;;;9.73;100.00;98237.84;5090314;28;20451;-77
2022/12/25 00:47:20;;;;;;;18.63;6.80;;;9.10;99.90;;;9.74;100.00;98223.81;5089265;28;20514;-77
2022/12/25 00:49:51;;;;;;;21.53;6.57;;;9.10;99.90;;;9.73;100.00;98224.81;5091742;28;20477;-77
2022/12/25 00:52:21;;;;;;;10.83;6.80;;;9.10;99.90;;;9.74;100.00;98223.81;5090637;28;20506;-77
2022/12/25 00:54:52;;;;;;;14.80;6.80;;;9.20;99.90;;;9.73;100.00;98220.41;5089979;28;20473;-77
2022/12/25 00:57:22;;;;;;;16.90;6.47;;;9.10;99.90;;;9.73;100.00;98228.22;5089130;28;21119;-77
2022/12/25 00:59:51;;;;;;;13.67;6.83;;;9.10;99.90;;;9.72;100.00;98233.66;5095001;28;20533;-77
2022/12/25 01:02:23;;;;;;;10.93;5.87;;;9.10;99.90;;;9.71;100.00;98232.00;5091635;28;21150;-77
2022/12/25 01:04:56;;;;;;;8.37;5.07;;;9.10;99.90;;;9.69;100.00;98226.13;5096360;28;21156;-78
2022/12/25 01:07:28;;;;;;;19.03;6.40;;;9.00;99.90;;;9.70;100.00;98231.19;5095018;28;20465;-77
2022/12/25 01:12:44;;;;;;;18.07;5.67;;;9.00;99.90;;;9.68;100.00;98227.16;5093473;28;20460;-77
2022/12/25 01:15:14;;;;;;;18.50;7.10;;;9.00;99.90;;;9.66;100.00;98229.09;5094335;28;20466;-77
2022/12/25 01:17:44;;;;;;;12.20;5.43;;;9.00;99.90;;;9.63;100.00;98225.06;5091702;28;20486;-77
2022/12/25 01:20:16;;;;;;;14.10;5.30;;;8.90;99.90;;;9.64;100.00;98231.09;5087005;28;20455;-79
2022/12/25 01:22:46;;;;;;;12.93;5.90;;;8.90;99.90;;;9.65;100.00;98227.50;5091203;28;20489;-77
2022/12/25 01:25:15;;;;;;;19.40;5.87;;;8.90;99.90;;;9.63;100.00;98222.44;5091475;28;20490;-77
2022/12/25 01:27:44;;;;;;;11.30;5.43;;;9.00;99.90;;;9.62;100.00;98226.03;5089779;28;20535;-77
2022/12/25 01:30:14;;;;;;;11.43;6.43;;;8.90;99.90;;;9.63;100.00;98208.56;5089490;28;20471;-77
2022/12/25 01:32:43;;;;;;;9.67;5.10;;;8.90;99.90;;;9.61;100.00;98206.94;5091383;28;20475;-77
2022/12/25 01:35:14;;;;;;;16.60;5.70;;;9.00;99.90;;;9.58;100.00;98212.53;5091099;28;20455;-77
2022/12/25 01:37:45;;;;;;;15.53;5.40;;;8.90;99.90;;;9.58;100.00;98206.47;5091661;28;20545;-77
2022/12/25 01:40:14;;;;;;;22.77;6.47;;;8.90;99.90;;;9.54;100.00;98211.25;5090572;28;20463;-77
2022/12/25 01:42:43;;;;;;;10.63;5.50;;;8.90;99.90;;;9.54;100.00;98208.63;5091029;28;20490;-77
2022/12/25 01:45:40;;;;;;;9.70;5.00;;;8.80;99.90;;;9.51;100.00;98210.81;5087654;28;20481;-77
2022/12/25 01:48:17;;;;;;;18.73;6.00;;;8.80;99.90;;;9.54;100.00;98206.03;5089702;28;20476;-77
2022/12/25 01:50:54;;;;;;;18.20;5.63;;;8.90;99.90;;;9.50;100.00;98204.78;5091633;28;20960;-77
2022/12/25 01:53:26;;;;;;;11.27;5.83;;;8.90;99.90;;;9.48;100.00;98211.97;5087894;28;20512;-77
2022/12/25 01:56:02;;;;;;;18.13;5.80;;;8.90;99.90;;;9.44;100.00;98195.03;5091883;28;20528;-77
2022/12/25 01:58:32;;;;;;;11.33;5.10;;;8.80;99.90;;;9.38;100.00;98194.91;5091278;28;20490;-77
2022/12/25 02:01:02;;;;;;;10.97;5.27;;;8.70;99.90;;;9.37;100.00;98183.66;5089178;28;20487;-78
2022/12/25 02:03:31;;;;;;;6.70;4.67;;;8.70;99.90;;;9.39;100.00;98186.94;5091313;28;21214;-77
2022/12/25 02:06:04;;;;;;;13.60;5.40;;;8.70;99.90;;;9.35;100.00;98184.84;5091149;28;20900;-77
2022/12/25 02:08:34;;;;;;;14.03;5.60;;;8.60;99.90;;;9.37;100.00;98198.53;5090036;28;20479;-77
2022/12/25 02:11:05;;;;;;;11.57;6.00;;;8.70;99.90;;;9.31;100.00;98194.81;5087945;28;20499;-78
2022/12/25 02:13:34;;;;;;;13.80;5.50;;;8.70;99.90;;;9.30;100.00;98192.41;5089478;28;20528;-77
2022/12/25 02:16:13;;;;;;;16.27;6.27;;;8.60;99.90;;;9.27;100.00;98188.31;5089387;28;20490;-77
2022/12/25 02:18:51;;;;;;;14.63;5.33;;;8.60;99.90;;;9.26;100.00;98186.72;5086275;28;21059;-77
2022/12/25 02:21:52;;;;;;;13.90;5.00;;;8.60;99.90;;;9.25;100.00;98182.47;5090821;28;20534;-78
2022/12/25 02:24:52;;;;;;;10.50;5.50;;;8.60;99.90;;;9.20;100.00;98170.94;5088598;28;20538;-77
2022/12/25 02:27:55;;;;;;;13.10;6.00;;;8.50;99.90;;;9.19;100.00;98174.53;5090143;28;20490;-77
2022/12/25 02:30:30;;;;;;;13.20;5.00;;;8.50;99.90;;;9.10;100.00;98171.16;5083649;28;20495;-78
2022/12/25 02:35:58;;;;;;;15.90;5.93;;;8.30;99.90;;;9.12;100.00;98165.78;5093413;28;20464;-78
2022/12/25 02:38:36;;;;;;;12.60;5.40;;;8.40;99.90;;;9.09;100.00;98162.53;5093664;28;20927;-78
2022/12/25 02:41:15;;;;;;;10.43;4.93;;;8.30;99.90;;;9.10;100.00;98168.56;5092322;28;20546;-77
2022/12/25 03:06:45;;;;;;;10.33;5.53;;;8.40;99.90;;;9.12;100.00;98160.56;5091309;28;20504;-77
2022/12/25 03:12:18;;;;;;;16.23;5.60;;;8.40;99.90;;;9.06;100.00;98159.44;5086831;28;20999;-77
2022/12/25 03:17:35;;;;;;;12.37;5.23;;;8.40;99.90;;;9.10;100.00;98151.13;5087918;28;20521;-77
2022/12/25 03:28:31;;;;;;;11.10;5.40;;;8.40;99.90;;;9.10;100.00;98142.47;5094137;28;20443;-77
2022/12/25 03:31:15;;;;;;;12.77;4.63;;;8.40;99.90;;;9.10;100.00;98145.06;5090673;28;20523;-77
2022/12/25 04:37:02;;;;;;;8.33;4.27;;;8.50;99.90;;;9.19;100.00;98089.25;5094513;28;20464;-77
2022/12/25 04:39:31;;;;;;;7.60;3.20;;;8.60;99.90;;;9.17;100.00;98088.59;5093390;28;20463;-78
2022/12/25 04:42:03;;;;;;;8.63;3.50;;;8.50;99.90;;;9.15;100.00;98085.38;5096662;28;20855;-77
2022/12/25 04:44:33;;;;;;;6.20;3.37;;;8.50;99.90;;;9.17;100.00;98096.44;5092544;28;20553;-77
2022/12/25 04:47:01;;;;;;;4.97;3.80;;;8.50;99.90;;;9.20;100.00;98090.06;5092830;28;20487;-77
2022/12/25 04:49:39;;;;;;;12.03;4.50;;;8.50;99.90;;;9.21;100.00;98081.25;5094976;28;20487;-77
2022/12/25 04:52:09;;;;;;;6.87;3.70;;;8.60;99.90;;;9.21;100.00;98081.25;5093974;28;20557;-77
2022/12/25 04:54:39;;;;;;;5.00;3.53;;;8.60;99.90;;;9.20;100.00;98077.81;5085363;28;20552;-77
2022/12/25 04:57:10;;;;;;;11.30;3.53;;;8.60;99.90;;;9.20;100.00;98067.38;5093135;28;20553;-77
2022/12/25 04:59:40;;;;;;;17.43;5.03;;;8.60;99.90;;;9.21;100.00;98079.44;5093029;28;21126;-77
2022/12/25 05:02:09;;;;;;;7.30;3.30;;;8.60;99.90;;;9.20;100.00;98079.63;5094630;28;20462;-77
2022/12/25 05:04:39;;;;;;;20.37;4.20;;;8.50;99.90;;;9.21;100.00;98079.44;5091418;28;20962;-78
2022/12/25 05:07:09;;;;;;;8.90;2.97;;;8.60;99.90;;;9.22;100.00;98095.91;5094378;28;20533;-78
2022/12/25 05:09:40;;;;;;;9.63;4.03;;;8.60;99.90;;;9.23;100.00;98092.31;5092729;28;20478;-77
2022/12/25 05:12:13;;;;;;;12.73;4.93;;;8.70;99.90;;;9.25;100.00;98096.38;5091344;28;20843;-77
2022/12/25 05:14:43;;;;;;;5.40;3.53;;;8.70;99.90;;;9.27;100.00;98104.81;5091036;28;20510;-77
2022/12/25 05:17:13;;;;;;;7.50;3.23;;;8.70;99.90;;;9.27;100.00;98102.22;5093581;28;20502;-77
2022/12/25 05:19:42;;;;;;;7.90;3.50;;;8.70;99.90;;;9.27;100.00;98109.22;5092781;28;20474;-77
2022/12/25 05:22:13;;;;;;;5.70;3.20;;;8.70;99.90;;;9.29;100.00;98102.03;5092468;28;20486;-77
2022/12/25 05:24:43;;;;;;;6.97;3.57;;;8.80;99.90;;;9.29;100.00;98095.03;5092942;28;20476;-77
2022/12/25 05:27:15;;;;;;;6.17;3.40;;;8.70;99.90;;;9.30;100.00;98088.03;5094151;28;20495;-77
2022/12/25 05:29:45;;;;;;;4.80;3.10;;;8.70;99.90;;;9.29;100.00;98076.78;5094705;28;21047;-78
2022/12/25 05:32:14;;;;;;;7.13;3.30;;;8.70;99.90;;;9.30;100.00;98082.81;5091976;28;20880;-77
2022/12/25 05:34:44;;;;;;;4.40;2.10;;;8.70;99.90;;;9.26;100.00;98076.31;5091367;28;20464;-77
2022/12/25 05:37:15;;;;;;;13.30;3.57;;;8.70;99.90;;;9.22;100.00;98075.03;5092125;28;20482;-77
2022/12/25 05:39:45;;;;;;;15.77;2.40;;;8.50;99.90;;;9.22;100.00;98078.47;5090087;28;20542;-77
2022/12/25 05:42:18;;;;;;;4.80;2.60;;;8.50;99.90;;;9.24;100.00;98073.88;5089530;28;21239;-77
2022/12/25 05:44:47;;;;;;;6.67;2.97;;;8.60;99.90;;;9.26;100.00;98076.31;5090194;28;20543;-77
2022/12/25 05:47:15;;;;;;;4.93;2.43;;;8.60;99.90;;;9.29;100.00;98061.13;5090439;28;20487;-77
2022/12/25 05:49:45;;;;;;;14.23;2.50;;;8.70;99.90;;;9.28;100.00;98069.91;5089577;28;20496;-77
2022/12/25 05:52:15;;;;;;;9.83;2.93;;;8.70;99.90;;;9.29;100.00;98063.72;5089949;28;20508;-77
2022/12/25 05:54:44;;;;;;;4.30;2.40;;;8.70;99.90;;;9.28;100.00;98069.91;5089377;28;20462;-77
2022/12/25 05:57:15;;;;;;;7.93;2.73;;;8.60;99.90;;;9.27;100.00;98067.47;5092045;28;20544;-77
2022/12/25 05:59:46;;;;;;;4.07;2.63;;;8.60;99.90;;;9.27;100.00;98073.50;5090761;28;20459;-77
2022/12/25 06:02:16;;;;;;;7.67;2.47;;;8.60;99.90;;;9.26;100.00;98066.69;5096948;28;20950;-77
2022/12/25 06:04:46;;;;;;;3.63;1.97;;;8.50;99.90;;;9.27;100.00;98073.50;5094762;28;20571;-77
2022/12/25 06:07:16;;;;;;;7.60;2.70;;;8.60;99.90;;;9.28;100.00;98069.09;5090851;28;20533;-77
2022/12/25 06:09:46;;;;;;;4.60;2.33;;;8.60;99.90;;;9.30;100.00;98067.94;5093684;28;20459;-77
2022/12/25 06:12:18;;;;;;;3.90;2.83;;;8.60;99.90;;;9.29;100.00;98073.34;5093395;28;21089;-77
2022/12/25 06:14:48;;;;;;;5.33;2.50;;;8.60;99.90;;;9.29;100.00;98076.78;5093121;28;20537;-77
2022/12/25 06:17:19;;;;;;;4.83;2.87;;;8.60;99.90;;;9.28;100.00;98074.31;5092443;28;20589;-77
2022/12/25 06:19:48;;;;;;;19.37;5.43;;;8.60;99.90;;;9.25;100.00;98074.69;5086009;28;20988;-76
2022/12/25 06:22:18;;;;;;;9.70;3.00;;;8.50;99.90;;;9.26;100.00;98066.69;5082020;28;20501;-77
2022/12/25 06:24:48;;;;;;;15.37;2.60;;;8.60;99.90;;;9.28;100.00;98063.88;5084094;28;20478;-77
2022/12/25 06:27:21;;;;;;;10.03;3.70;;;8.60;99.90;;;9.29;100.00;98073.34;5088925;28;20590;-78
2022/12/25 06:29:50;;;;;;;4.93;2.57;;;8.60;99.90;;;9.29;100.00;98070.72;5088386;28;20463;-77
2022/12/25 06:32:19;;;;;;;25.67;10.03;;;8.60;99.90;;;9.29;100.00;98073.34;5085660;28;21011;-76
2022/12/25 06:34:49;;;;;;;6.43;3.00;;;8.60;99.90;;;9.29;100.00;98070.72;5087926;28;20888;-77
2022/12/25 06:37:18;;;;;;;11.17;3.60;;;8.60;99.90;;;9.29;100.00;98071.53;5082398;28;20549;-76
2022/12/25 06:39:49;;;;;;;5.80;3.00;;;8.60;99.90;;;9.29;100.00;98053.28;5088171;28;20467;-77
2022/12/25 06:42:17;;;;;;;9.40;3.50;;;8.60;99.90;;;9.31;100.00;98046.06;5083854;28;20536;-77
2022/12/25 06:44:49;;;;;;;3.27;2.63;;;8.60;99.90;;;9.31;100.00;98047.88;5090349;28;20542;-77
2022/12/25 06:47:19;;;;;;;6.93;3.23;;;8.60;99.90;;;9.30;100.00;98052.28;5085109;28;20546;-77
2022/12/25 06:49:49;;;;;;;4.73;3.23;;;8.70;99.90;;;9.29;100.00;98055.06;5086593;28;20570;-77
2022/12/25 06:52:26;;;;;;;6.33;3.30;;;8.60;99.90;;;9.29;100.00;98053.28;5086806;28;20517;-77
2022/12/25 06:54:57;;;;;;;5.03;2.70;;;8.60;99.90;;;9.31;100.00;98051.28;5088140;28;20553;-77
2022/12/25 06:57:26;;;;;;;6.00;3.27;;;8.70;99.90;;;9.33;100.00;98048.53;5088769;28;20927;-76
2022/12/25 06:59:57;;;;;;;11.10;4.53;;;8.80;99.90;;;9.34;100.00;98052.72;5088611;28;20487;-76
2022/12/25 07:02:26;;;;;;;11.53;3.13;;;8.70;99.90;;;9.34;100.00;98052.72;5084412;28;20501;-76
2022/12/25 07:04:59;;;;;;;10.87;3.17;;;8.70;99.90;;;9.32;100.00;98039.88;5089592;28;20474;-76
2022/12/25 07:07:29;;;;;;;10.70;3.63;;;8.70;99.90;;;9.33;100.00;98046.72;5090046;28;20455;-76
2022/12/25 07:09:59;;;;;;;8.03;2.73;;;8.60;99.90;;;9.33;100.00;98044.13;5096054;28;20462;-76
2022/12/25 07:12:28;;;;;;;9.43;3.40;;;8.70;99.90;;;9.33;100.00;98041.50;5092126;28;21052;-76
2022/12/25 07:14:59;;;;;;;8.53;3.73;;;8.70;99.90;;;9.33;100.00;98056.34;5090141;28;20468;-76
2022/12/25 07:17:29;;;;;;;9.37;4.20;;;8.60;99.90;;;9.34;100.00;98044.91;5090904;28;20482;-76
2022/12/25 07:20:00;;;;;;;7.53;3.83;;;8.70;99.90;;;9.35;100.00;98039.50;5093687;28;20460;-76
2022/12/25 07:22:30;;;;;;;5.90;3.73;;;8.70;99.90;;;9.35;100.00;98042.13;5091165;28;20468;-76
2022/12/25 07:24:59;;;;;;;16.83;4.03;;;8.70;99.90;;;9.34;100.00;98050.94;5088842;28;20454;-76
2022/12/25 07:27:28;;;;;;;8.70;3.23;;;8.70;99.90;;;9.34;100.00;98048.31;5091332;28;20458;-76
2022/12/25 07:30:03;;;;;;;9.03;4.33;;;8.70;99.90;;;9.35;100.00;98043.91;5091766;28;20464;-76
2022/12/25 07:32:35;;;;;;;7.60;5.40;;;8.70;99.90;;;9.34;100.00;98048.31;5079892;28;20525;-74
2022/12/25 07:35:05;;;;;;;6.13;3.70;;;8.70;99.90;;;9.35;100.00;98047.34;5082214;28;21201;-76
2022/12/25 07:37:36;;;;;;;7.50;4.30;;;8.70;99.90;;;9.37;100.00;98039.34;5085068;28;20514;-77
2022/12/25 07:40:07;;;;;;;7.70;3.80;;;8.80;99.90;;;9.36;100.00;98041.16;5089254;28;20458;-76
2022/12/25 07:42:38;;;;;;;6.00;3.60;;;8.80;99.90;;;9.37;100.00;98047.19;5084586;28;21004;-76
2022/12/25 07:45:09;;;;;;;16.93;3.40;;;8.70;99.90;;;9.35;100.00;98042.13;5084691;28;20455;-80
2022/12/25 07:47:39;;;;;;;6.43;3.33;;;8.70;99.90;;;9.35;100.00;98052.56;5087368;28;20467;-77
2022/12/25 07:50:11;;;;;;;8.63;3.40;;;8.60;99.90;;;9.34;100.00;98048.31;5087816;28;21574;-77
2022/12/25 07:52:41;;;;;;;5.73;3.37;;;8.70;99.90;;;9.33;100.00;98043.31;5093014;28;20504;-76
2022/12/25 07:55:12;;;;;;;8.17;3.97;;;8.60;99.90;;;9.33;100.00;98040.69;5092015;28;20473;-76
2022/12/25 07:57:42;;;;;;;6.50;3.20;;;8.60;99.90;;;9.31;100.00;98035.63;5087227;28;20494;-76
2022/12/25 08:00:15;;;;;;;4.67;3.67;;;8.60;99.90;;;9.30;100.00;98041.84;5091805;28;20538;-76
2022/12/25 08:02:44;;;;;;;5.70;3.80;;;8.60;99.90;;;9.32;100.00;98028.63;5092384;28;20451;-76
2022/12/25 08:05:15;;;;;;;5.67;3.70;;;8.60;99.90;;;9.33;100.00;98028.47;5091623;28;20879;-76
2022/12/25 08:07:45;;;;;;;6.80;3.77;;;8.60;99.90;;;9.31;100.00;98022.59;5093539;28;21030;-76
2022/12/25 08:10:14;;;;;;;7.40;4.10;;;8.60;99.90;;;9.33;100.00;98030.25;5090569;28;20460;-77
2022/12/25 08:12:44;;;;;;;5.37;3.70;;;8.60;99.90;;;9.31;100.00;98043.47;5089262;28;20521;-77
2022/12/25 08:15:16;;;;;;;5.27;3.47;;;8.60;99.90;;;9.34;100.00;98043.09;5093865;28;20843;-82
2022/12/25 08:17:46;;;;;;;5.93;4.10;;;8.70;99.90;;;9.37;100.00;98031.53;5092758;28;21220;-77
2022/12/25 08:20:15;;;;;;;11.23;3.83;;;8.80;99.90;;;9.38;100.00;98030.50;5089846;28;20930;-76
2022/12/25 08:22:45;;;;;;;6.10;3.47;;;8.90;99.90;;;9.39;100.00;98035.56;5087347;28;20521;-76
2022/12/25 08:25:16;;;;;;;6.30;3.17;;;8.80;99.90;;;9.40;100.00;98028.53;5091247;28;20459;-76
2022/12/25 08:27:45;;;;;;;13.63;3.63;;;8.80;99.90;;;9.40;100.00;98028.53;5089653;28;21267;-77
2022/12/25 08:30:18;;;;;;;4.83;3.57;;;8.80;99.90;;;9.42;100.00;98029.16;5084562;28;20466;-77
2022/12/25 08:32:48;;;;;;;8.97;3.67;;;8.80;99.90;;;9.40;100.00;98028.53;5090948;28;20492;-77
2022/12/25 08:35:18;;;;;;;11.50;3.97;;;8.70;99.90;;;9.41;100.00;98033.56;5086349;28;20486;-77
2022/12/25 08:37:47;;;;;;;9.70;3.80;;;8.80;99.90;;;9.42;100.00;98034.38;5087198;28;20463;-77
2022/12/25 08:40:18;;;;;;;6.80;3.17;;;8.80;99.90;;;9.44;100.00;98040.25;5090069;28;20473;-77
2022/12/25 08:42:49;;;;;;;6.93;2.93;;;8.80;99.90;;;9.46;100.00;98038.25;5090463;28;20455;-77
2022/12/25 08:45:20;;;;;;;14.70;4.30;;;8.80;99.90;;;9.49;100.00;98036.09;5091724;28;20463;-77
2022/12/25 08:47:55;;;;;;;5.93;3.57;;;8.90;99.90;;;9.50;100.00;98036.91;5089818;28;20472;-77
2022/12/25 08:50:25;;;;;;;18.00;4.07;;;8.90;99.90;;;9.51;100.00;98039.31;5093145;28;20463;-77
2022/12/25 08:52:57;;;;;;;7.57;4.13;;;8.90;99.90;;;9.54;100.00;98043.41;5090919;28;20486;-77
2022/12/25 08:55:26;;;;;;;4.80;3.70;;;8.90;99.90;;;9.55;100.00;98037.97;5092174;28;20466;-77
2022/12/25 08:57:56;;;;;;;10.53;4.97;;;8.90;99.90;;;9.55;100.00;98035.38;5090234;28;20965;-77
2022/12/25 09:00:26;;;;;;;5.57;4.40;;;8.90;99.90;;;9.56;100.00;98030.97;5090152;28;20551;-77
2022/12/25 09:02:57;;;;;;;18.70;8.83;;;8.90;99.90;;;9.57;100.00;98025.56;5090891;28;20455;-77
2022/12/25 09:05:27;;;;;;;12.30;6.27;;;8.90;99.90;;;9.58;100.00;98029.78;5089168;28;20459;-77
2022/12/25 09:07:57;;;;;;;15.80;9.73;;;8.90;99.90;;;9.58;100.00;98029.78;5087562;28;20489;-77
2022/12/25 09:10:27;;;;;;;20.37;9.97;;;8.90;99.90;;;9.60;100.00;98032.22;5091157;28;20815;-77
2022/12/25 09:12:56;;;;;;;16.50;9.43;;;9.00;99.90;;;9.60;100.00;98027.81;5090983;28;20907;-77
2022/12/25 09:15:29;;;;;;;21.03;10.10;;;9.00;99.90;;;9.60;100.00;98035.66;5086094;28;20464;-77
2022/12/25 09:17:58;;;;;;;13.50;9.60;;;8.90;99.90;;;9.62;100.00;98043.28;5088286;28;20968;-77
2022/12/25 09:20:28;;;;;;;13.53;9.30;;;9.00;99.90;;;9.65;100.00;98039.53;5094472;28;21202;-77
2022/12/25 09:22:57;;;;;;;23.97;11.70;;;9.00;99.90;;;9.67;100.00;98034.91;5084208;28;21080;-77
2022/12/25 09:25:27;;;;;;;20.33;11.87;;;9.00;99.90;;;9.68;100.00;98019.09;5090527;28;20946;-77
2022/12/25 09:27:56;;;;;;;16.53;10.97;;;9.00;99.90;;;9.71;100.00;98012.69;5090519;28;20463;-77
2022/12/25 09:30:28;;;;;;;19.13;12.53;;;9.10;99.90;;;9.72;100.00;98022.16;5087811;28;20467;-77
2022/12/25 09:32:57;;;;;;;23.63;11.90;;;9.10;99.90;;;9.73;100.00;98018.53;5085670;28;20491;-76
2022/12/25 09:35:27;;;;;;;21.73;12.50;;;9.10;99.90;;;9.73;100.00;98023.75;5089205;28;21017;-77
2022/12/25 09:37:57;;;;;;;17.00;10.73;;;9.10;99.90;;;9.76;100.00;98020.75;5088900;28;20459;-77
2022/12/25 09:40:32;;;;;;;16.57;10.67;;;9.10;99.90;;;9.79;100.00;98020.44;5088047;28;20526;-74
2022/12/25 09:43:04;;;;;;;18.10;11.30;;;9.20;99.90;;;9.79;100.00;98021.22;5085189;28;20459;-77
2022/12/25 09:45:38;;;;;;;16.40;9.30;;;9.20;99.90;;;9.83;100.00;98032.09;5089854;28;20822;-76
2022/12/25 09:48:13;;;;;;;19.17;9.30;;;9.20;99.90;;;9.83;100.00;98024.28;5094919;28;20455;-77
2022/12/25 09:50:51;;;;;;;12.90;8.63;;;9.20;99.90;;;9.86;100.00;98021.28;5087121;28;20460;-77
2022/12/25 09:53:25;;;;;;;15.70;8.97;;;9.30;99.90;;;9.89;100.00;98026.94;5089941;28;20532;-77
2022/12/25 09:56:17;;;;;;;13.07;7.90;;;9.30;99.90;;;9.91;100.00;98018.94;5089477;28;21064;-77
2022/12/25 09:59:20;;;;;;;12.30;8.37;;;9.30;99.90;;;9.94;100.00;98014.16;5079324;28;20477;-77
2022/12/25 10:02:26;;;;;;;18.73;10.00;;;9.30;99.90;;;9.97;100.00;98015.59;5087384;28;20465;-77
2022/12/25 10:05:25;;;;;;;19.83;10.83;;;9.30;99.90;;;9.99;100.00;98000.56;5084470;28;20482;-77
2022/12/25 10:08:19;;;;;;;20.43;10.57;;;9.40;99.90;;;10.00;100.00;97994.31;5084024;28;20471;-77
2022/12/25 10:10:58;;;;;;;19.20;12.37;;;9.40;99.90;;;10.02;100.00;97994.97;5089962;28;20958;-77
2022/12/25 10:13:58;;;;;;;21.00;12.43;;;9.40;99.90;;;10.04;100.00;97987.75;5089502;28;20497;-76
2022/12/25 10:16:44;;;;;;;23.67;11.80;;;9.40;99.90;;;10.05;100.00;97995.41;5085844;28;20475;-77
2022/12/25 10:19:54;;;;;;;37.47;18.20;;;9.40;99.90;;;10.06;100.00;97991.81;5092401;28;20450;-76
2022/12/25 10:22:36;;;;;;;21.00;12.33;;;9.50;99.90;;;10.09;100.00;97996.66;5088493;28;20556;-76
2022/12/25 10:25:17;;;;;;;18.67;11.63;;;9.50;99.90;;;10.11;100.00;97994.66;5087838;28;20452;-76
2022/12/25 10:27:54;;;;;;;20.77;8.97;;;9.50;99.90;;;10.13;100.00;97989.25;5088000;28;20958;-76
2022/12/25 10:30:26;;;;;;;15.93;8.80;;;9.50;99.90;;;10.15;100.00;97979.47;5090328;28;20942;-76
2022/12/25 10:33:02;;;;;;;13.10;7.43;;;9.60;99.90;;;10.18;100.00;97973.84;5085623;28;21023;-77
2022/12/25 10:35:38;;;;;;;15.30;9.10;;;9.60;99.90;;;10.18;100.00;97984.31;5085727;28;20880;-76
2022/12/25 10:38:16;;;;;;;9.10;6.33;;;9.60;99.90;;;10.20;100.00;97981.53;5072615;28;20544;-76
2022/12/25 10:41:18;;;;;;;13.13;6.53;;;9.70;99.90;;;10.20;100.00;97966.66;5085163;28;20478;-76
2022/12/25 10:43:54;;;;;;;13.53;7.20;;;9.60;99.90;;;10.22;100.00;97974.28;5083260;28;20559;-77
2022/12/25 10:49:23;;;;;;;17.33;6.10;;;9.70;99.90;;;10.24;100.00;97967.88;5089968;28;20490;-81
2022/12/25 10:52:01;;;;;;;11.83;6.87;;;9.70;99.90;;;10.26;100.00;97970.31;5089277;28;20468;-76
2022/12/25 10:54:36;;;;;;;13.70;8.83;;;9.70;99.90;;;10.27;100.00;97972.75;5088800;28;20502;-76
2022/12/25 10:57:17;;;;;;;14.33;8.23;;;9.70;99.90;;;10.29;100.00;97960.31;5089486;28;20838;-77
2022/12/25 10:59:50;;;;;;;13.33;6.23;;;9.70;99.90;;;10.31;100.00;97939.22;5088207;28;20456;-77
2022/12/25 11:02:26;;;;;;;22.73;10.93;;;9.70;99.90;;;10.32;100.00;97925.94;5087497;28;20549;-73
2022/12/25 11:05:03;;;;;;;15.03;5.77;;;9.70;99.90;;;10.35;100.00;97915.13;5085959;28;20458;-77
2022/12/25 11:07:49;;;;;;;10.60;6.13;;;9.70;99.90;;;10.36;100.00;97890.59;5087629;28;20458;-76
2022/12/25 11:10:23;;;;;;;42.47;21.10;;;9.80;99.90;;;10.41;100.00;97879.59;5091656;28;20489;-77
2022/12/25 11:12:53;;;;;;;8.40;5.80;;;9.80;99.90;;;10.42;100.00;97889.84;5091474;28;20494;-77
2022/12/25 11:15:38;;;;;;;8.60;5.90;;;9.90;99.90;;;10.46;100.00;97888.47;5088236;28;20553;-77
2022/12/25 11:18:20;;;;;;;8.10;5.63;;;10.00;99.90;;;10.49;100.00;97895.09;5089069;28;21037;-77
2022/12/25 11:20:51;;;;;;;8.57;5.20;;;10.00;99.90;;;10.51;100.00;97898.34;5090563;28;20953;-76
2022/12/25 11:23:26;;;;;;;9.83;5.40;;;10.00;99.90;;;10.52;100.00;97882.47;5091227;28;20463;-74
2022/12/25 11:25:58;;;;;;;10.50;5.60;;;10.00;99.90;;;10.56;100.00;97882.88;5095535;28;20494;-77
2022/12/25 11:28:30;;;;;;;12.00;6.57;;;10.10;99.90;;;10.58;100.00;97884.34;5099324;28;20477;-77
2022/12/25 11:31:07;;;;;;;7.37;5.57;;;10.00;99.90;;;10.59;100.00;97885.94;5096105;28;20473;-77
2022/12/25 11:33:45;;;;;;;13.30;6.90;;;10.00;99.90;;;10.64;100.00;97889.78;5097538;28;20995;-77
2022/12/25 11:36:26;;;;;;;10.77;6.30;;;10.10;99.90;;;10.66;100.00;97882.56;5099977;28;20458;-77
2022/12/25 11:39:08;;;;;;;12.03;5.83;;;10.10;99.90;;;10.67;100.00;97878.94;5101963;28;20469;-77
2022/12/25 11:41:40;;;;;;;11.27;6.03;;;10.10;99.90;;;10.69;100.00;97863.88;5094827;28;20825;-77
2022/12/25 11:44:26;;;;;;;12.33;5.90;;;10.10;99.90;;;10.71;100.00;97854.03;5098190;28;20451;-78
2022/12/25 11:47:02;;;;;;;13.03;5.63;;;10.10;99.90;;;10.73;100.00;97852.03;5097059;28;20520;-77
2022/12/25 11:49:44;;;;;;;9.40;5.00;;;10.20;99.90;;;10.76;100.00;97856.88;5097412;28;20541;-77
2022/12/25 11:52:22;;;;;;;9.13;5.87;;;10.20;99.90;;;10.77;100.00;97848.03;5098269;28;20454;-77
2022/12/25 11:55:00;;;;;;;8.43;5.30;;;10.20;99.90;;;10.79;100.00;97843.41;5097513;28;20613;-77
2022/12/25 11:57:33;;;;;;;11.20;5.40;;;10.20;99.90;;;10.82;100.00;97837.81;5094878;28;20455;-77
2022/12/25 12:00:08;;;;;;;9.13;5.93;;;10.20;99.90;;;10.86;100.00;97831.19;5097190;28;20464;-77
2022/12/25 12:02:45;;;;;;;6.03;4.80;;;10.30;99.90;;;10.88;100.00;97832.59;5099246;28;20479;-77
2022/12/25 12:05:21;;;;;;;11.87;5.43;;;10.30;99.90;;;10.92;100.00;97833.84;5098767;28;20860;-77
2022/12/25 12:07:59;;;;;;;11.07;6.00;;;10.40;99.90;;;10.94;100.00;97831.81;5098993;28;20479;-77
2022/12/25 12:10:42;;;;;;;9.50;5.20;;;10.40;99.90;;;10.97;100.00;97828.00;5099781;28;20489;-77
2022/12/25 12:13:32;;;;;;;7.97;4.73;;;10.50;99.90;;;11.01;100.00;97835.28;5095048;28;20463;-77
2022/12/25 12:16:02;;;;;;;11.27;5.20;;;10.60;99.90;;;11.03;100.00;97830.66;5097587;28;21269;-77
2022/12/25 12:18:33;;;;;;;7.20;4.13;;;10.60;99.90;;;11.13;100.00;97829.47;5098540;28;20455;-77
2022/12/25 12:21:08;;;;;;;8.03;3.33;;;10.80;99.90;;;11.15;100.00;97825.66;5097140;28;20817;-77
2022/12/25 12:23:53;;;;;;;4.50;3.60;;;10.80;99.90;;;11.18;100.00;97820.03;5095893;28;20497;-77
2022/12/25 12:26:28;;;;;;;9.33;3.67;;;10.80;99.90;;;11.21;100.00;97814.41;5098680;28;20455;-77
2022/12/25 12:29:00;;;;;;;8.57;4.07;;;10.80;99.90;;;11.24;100.00;97810.59;5098366;28;20486;-77
2022/12/25 12:31:42;;;;;;;7.30;4.10;;;10.90;99.90;;;11.27;100.00;97812.81;5095189;28;21026;-77
2022/12/25 12:34:25;;;;;;;7.40;3.50;;;10.90;99.90;;;11.27;100.00;97805.78;5095540;27;20517;-77
2022/12/25 12:37:02;;;;;;;4.60;3.47;;;10.90;99.90;;;11.28;100.00;97817.06;5093769;28;20490;-77